createdAt,value
2017-04-17T00:00:50.949Z,0
2017-04-17T00:01:50.983Z,0
2017-04-17T00:02:51.620Z,0
2017-04-17T00:03:51.674Z,0
2017-04-17T00:04:51.410Z,0
2017-04-17T00:05:51.144Z,0
2017-04-17T00:06:51.150Z,0
2017-04-17T00:07:51.836Z,0
2017-04-17T00:08:51.837Z,0
2017-04-17T00:09:51.570Z,0
2017-04-17T00:10:51.308Z,0
2017-04-17T00:11:51.335Z,0
2017-04-17T00:12:51.660Z,0
2017-04-17T00:13:51.388Z,0
2017-04-17T00:14:51.733Z,0
2017-04-17T00:15:51.669Z,0
2017-04-17T00:16:51.814Z,0
2017-04-17T00:17:51.838Z,0
2017-04-17T00:18:52.458Z,0
2017-04-17T00:19:51.916Z,0
2017-04-17T00:20:51.629Z,0
2017-04-17T00:21:52.276Z,0
2017-04-17T00:22:52.344Z,0
2017-04-17T00:23:52.032Z,0
2017-04-17T00:24:52.371Z,0
2017-04-17T00:25:51.801Z,0
2017-04-17T00:26:52.129Z,0
2017-04-17T00:27:51.867Z,0
2017-04-17T00:28:52.210Z,0
2017-04-17T00:29:52.237Z,0
2017-04-17T00:30:52.312Z,0
2017-04-17T00:31:51.994Z,0
2017-04-17T00:32:52.364Z,0
2017-04-17T00:33:52.665Z,0
2017-04-17T00:34:52.134Z,0
2017-04-17T00:35:52.144Z,0
2017-04-17T00:36:52.459Z,0
2017-04-17T00:37:52.795Z,0
2017-04-17T00:38:52.849Z,0
2017-04-17T00:39:53.192Z,0
2017-04-17T00:40:52.295Z,0
2017-04-17T00:41:52.330Z,0
2017-04-17T00:42:52.390Z,0
2017-04-17T00:43:52.723Z,0
2017-04-17T00:44:52.748Z,0
2017-04-17T00:45:52.789Z,0
2017-04-17T00:46:52.823Z,0
2017-04-17T00:47:53.440Z,0
2017-04-17T00:48:53.187Z,0
2017-04-17T00:49:52.596Z,0
2017-04-17T00:50:52.943Z,0
2017-04-17T00:51:52.668Z,0
2017-04-17T00:52:53.335Z,0
2017-04-17T00:53:53.038Z,0
2017-04-17T00:54:52.783Z,0
2017-04-17T00:55:53.104Z,0
2017-04-17T00:56:53.143Z,0
2017-04-17T00:57:53.189Z,0
2017-04-17T00:58:53.503Z,0
2017-04-17T00:59:52.947Z,0
2017-04-17T01:00:53.268Z,0
2017-04-17T01:01:53.326Z,0
2017-04-17T01:02:53.680Z,0
2017-04-17T01:03:53.372Z,0
2017-04-17T01:04:53.420Z,0
2017-04-17T01:05:53.144Z,0
2017-04-17T01:06:53.198Z,0
2017-04-17T01:07:53.212Z,0
2017-04-17T01:08:54.185Z,0
2017-04-17T01:09:53.578Z,0
2017-04-17T01:10:53.622Z,0
2017-04-17T01:11:53.359Z,0
2017-04-17T01:12:53.989Z,0
2017-04-17T01:13:53.728Z,0
2017-04-17T01:14:53.745Z,0
2017-04-17T01:15:53.499Z,0
2017-04-17T01:16:53.831Z,0
2017-04-17T01:17:53.846Z,0
2017-04-17T01:18:54.200Z,0
2017-04-17T01:19:53.915Z,0
2017-04-17T01:20:54.587Z,0
2017-04-17T01:21:53.996Z,0
2017-04-17T01:22:54.048Z,0
2017-04-17T01:23:54.355Z,0
2017-04-17T01:24:54.706Z,0
2017-04-17T01:25:53.820Z,0
2017-04-17T01:26:53.847Z,0
2017-04-17T01:27:53.891Z,0
2017-04-17T01:28:54.216Z,0
2017-04-17T01:29:54.418Z,0
2017-04-17T01:30:54.599Z,0
2017-04-17T01:31:54.034Z,0
2017-04-17T01:32:54.952Z,0
2017-04-17T01:33:54.410Z,0
2017-04-17T01:34:55.027Z,0
2017-04-17T01:35:54.165Z,0
2017-04-17T01:36:54.484Z,0
2017-04-17T01:37:54.823Z,0
2017-04-17T01:38:54.942Z,0
2017-04-17T01:39:54.588Z,0
2017-04-17T01:40:54.626Z,0
2017-04-17T01:41:54.668Z,0
2017-04-17T01:42:54.993Z,0
2017-04-17T01:43:54.735Z,0
2017-04-17T01:44:54.782Z,0
2017-04-17T01:45:54.787Z,0
2017-04-17T01:46:54.844Z,0
2017-04-17T01:47:55.166Z,0
2017-04-17T01:48:55.206Z,0
2017-04-17T01:49:54.625Z,0
2017-04-17T01:50:54.686Z,0
2017-04-17T01:51:54.989Z,0
2017-04-17T01:52:55.329Z,0
2017-04-17T01:53:54.768Z,0
2017-04-17T01:54:54.802Z,0
2017-04-17T01:55:55.474Z,0
2017-04-17T01:56:54.855Z,0
2017-04-17T01:57:55.205Z,0
2017-04-17T01:58:55.226Z,0
2017-04-17T01:59:55.592Z,0
2017-04-17T02:00:55.599Z,0
2017-04-17T02:01:55.022Z,0
2017-04-17T02:02:55.987Z,0
2017-04-17T02:03:55.712Z,0
2017-04-17T02:04:55.424Z,0
2017-04-17T02:05:55.599Z,0
2017-04-17T02:06:55.568Z,0
2017-04-17T02:07:56.145Z,0
2017-04-17T02:08:55.864Z,0
2017-04-17T02:09:55.902Z,0
2017-04-17T02:10:55.941Z,0
2017-04-17T02:11:55.365Z,0
2017-04-17T02:12:56.308Z,0
2017-04-17T02:13:55.753Z,0
2017-04-17T02:14:55.682Z,0
2017-04-17T02:15:55.492Z,0
2017-04-17T02:16:55.539Z,0
2017-04-17T02:17:56.183Z,0
2017-04-17T02:18:55.904Z,0
2017-04-17T02:19:55.942Z,0
2017-04-17T02:20:55.985Z,0
2017-04-17T02:21:56.051Z,0
2017-04-17T02:22:56.051Z,0
2017-04-17T02:23:55.825Z,0
2017-04-17T02:24:55.875Z,0
2017-04-17T02:25:55.826Z,0
2017-04-17T02:26:55.871Z,0
2017-04-17T02:27:55.910Z,0
2017-04-17T02:28:56.230Z,0
2017-04-17T02:29:55.974Z,0
2017-04-17T02:30:56.008Z,0
2017-04-17T02:31:56.029Z,0
2017-04-17T02:32:56.372Z,0
2017-04-17T02:33:56.108Z,0
2017-04-17T02:34:56.145Z,0
2017-04-17T02:35:56.478Z,0
2017-04-17T02:36:56.498Z,0
2017-04-17T02:37:56.843Z,0
2017-04-17T02:38:56.273Z,0
2017-04-17T02:39:56.602Z,0
2017-04-17T02:40:56.936Z,0
2017-04-17T02:41:56.372Z,0
2017-04-17T02:42:57.017Z,0
2017-04-17T02:43:56.433Z,0
2017-04-17T02:44:56.802Z,0
2017-04-17T02:45:56.533Z,0
2017-04-17T02:46:56.547Z,0
2017-04-17T02:47:56.872Z,0
2017-04-17T02:48:57.216Z,0
2017-04-17T02:49:56.945Z,0
2017-04-17T02:50:57.179Z,0
2017-04-17T02:51:57.000Z,0
2017-04-17T02:52:57.342Z,0
2017-04-17T02:53:57.072Z,0
2017-04-17T02:54:57.102Z,0
2017-04-17T02:55:57.137Z,0
2017-04-17T02:56:56.877Z,0
2017-04-17T02:57:56.906Z,0
2017-04-17T02:58:56.969Z,0
2017-04-17T02:59:58.064Z,0
2017-04-17T03:00:57.316Z,0
2017-04-17T03:01:57.050Z,0
2017-04-17T03:02:57.071Z,0
2017-04-17T03:03:57.714Z,0
2017-04-17T03:04:57.772Z,0
2017-04-17T03:05:57.170Z,0
2017-04-17T03:06:57.716Z,0
2017-04-17T03:07:57.562Z,0
2017-04-17T03:08:57.589Z,0
2017-04-17T03:09:57.606Z,0
2017-04-17T03:10:58.261Z,0
2017-04-17T03:11:58.301Z,0
2017-04-17T03:12:57.706Z,0
2017-04-17T03:13:58.371Z,0
2017-04-17T03:14:57.778Z,0
2017-04-17T03:15:58.122Z,0
2017-04-17T03:16:57.836Z,0
2017-04-17T03:17:58.070Z,0
2017-04-17T03:18:57.624Z,0
2017-04-17T03:19:57.639Z,0
2017-04-17T03:20:57.986Z,0
2017-04-17T03:21:57.716Z,0
2017-04-17T03:22:58.047Z,0
2017-04-17T03:23:57.789Z,0
2017-04-17T03:24:58.113Z,0
2017-04-17T03:25:57.864Z,0
2017-04-17T03:26:58.293Z,0
2017-04-17T03:27:58.263Z,0
2017-04-17T03:28:58.543Z,0
2017-04-17T03:29:57.992Z,0
2017-04-17T03:30:58.031Z,0
2017-04-17T03:31:58.054Z,0
2017-04-17T03:32:58.384Z,0
2017-04-17T03:33:58.717Z,0
2017-04-17T03:34:58.760Z,0
2017-04-17T03:35:58.680Z,0
2017-04-17T03:36:58.521Z,0
2017-04-17T03:37:58.263Z,0
2017-04-17T03:38:58.285Z,0
2017-04-17T03:39:58.628Z,0
2017-04-17T03:40:58.961Z,0
2017-04-17T03:41:58.675Z,0
2017-04-17T03:42:58.732Z,0
2017-04-17T03:43:59.366Z,0
2017-04-17T03:44:58.473Z,0
2017-04-17T03:45:59.118Z,0
2017-04-17T03:46:58.868Z,0
2017-04-17T03:47:58.590Z,0
2017-04-17T03:48:59.144Z,0
2017-04-17T03:49:59.246Z,0
2017-04-17T03:50:58.671Z,0
2017-04-17T03:51:59.018Z,0
2017-04-17T03:52:59.065Z,0
2017-04-17T03:53:59.092Z,0
2017-04-17T03:54:59.417Z,0
2017-04-17T03:55:58.843Z,0
2017-04-17T03:56:59.193Z,0
2017-04-17T03:57:59.234Z,0
2017-04-17T03:58:59.250Z,0
2017-04-17T03:59:59.295Z,0
2017-04-17T04:00:59.022Z,0
2017-04-17T04:01:59.048Z,0
2017-04-17T04:02:59.685Z,0
2017-04-17T04:03:59.719Z,0
2017-04-17T04:04:59.451Z,0
2017-04-17T04:05:59.784Z,0
2017-04-17T04:06:59.831Z,0
2017-04-17T04:08:00.150Z,0
2017-04-17T04:08:59.583Z,0
2017-04-17T04:09:59.329Z,0
2017-04-17T04:10:59.913Z,0
2017-04-17T04:11:59.677Z,0
2017-04-17T04:12:59.730Z,0
2017-04-17T04:13:59.759Z,0
2017-04-17T04:14:59.782Z,0
2017-04-17T04:16:00.148Z,0
2017-04-17T04:16:59.865Z,0
2017-04-17T04:18:00.212Z,0
2017-04-17T04:19:00.218Z,0
2017-04-17T04:20:00.384Z,0
2017-04-17T04:20:59.694Z,5
2017-04-17T04:21:59.713Z,5
2017-04-17T04:23:00.683Z,5
2017-04-17T04:24:00.099Z,5
2017-04-17T04:24:59.810Z,5
2017-04-17T04:25:59.851Z,5
2017-04-17T04:26:59.878Z,5
2017-04-17T04:27:59.929Z,10
2017-04-17T04:29:00.098Z,10
2017-04-17T04:29:59.979Z,10
2017-04-17T04:31:00.327Z,10
2017-04-17T04:32:00.060Z,10
2017-04-17T04:33:00.107Z,10
2017-04-17T04:34:00.414Z,15
2017-04-17T04:35:00.751Z,15
2017-04-17T04:36:00.177Z,15
2017-04-17T04:37:00.223Z,15
2017-04-17T04:38:00.267Z,15
2017-04-17T04:39:00.281Z,10
2017-04-17T04:40:00.963Z,10
2017-04-17T04:41:00.350Z,10
2017-04-17T04:42:00.713Z,10
2017-04-17T04:43:00.741Z,10
2017-04-17T04:44:00.480Z,10
2017-04-17T04:45:00.491Z,10
2017-04-17T04:46:00.814Z,10
2017-04-17T04:47:01.177Z,10
2017-04-17T04:48:01.186Z,15
2017-04-17T04:49:00.932Z,15
2017-04-17T04:50:01.291Z,15
2017-04-17T04:51:01.009Z,15
2017-04-17T04:52:01.028Z,15
2017-04-17T04:53:01.370Z,15
2017-04-17T04:54:00.783Z,20
2017-04-17T04:55:00.811Z,20
2017-04-17T04:56:01.468Z,15
2017-04-17T04:57:01.184Z,15
2017-04-17T04:58:01.247Z,10
2017-04-17T04:59:00.944Z,10
2017-04-17T05:00:00.994Z,10
2017-04-17T05:01:01.024Z,10
2017-04-17T05:02:01.343Z,5
2017-04-17T05:03:01.381Z,5
2017-04-17T05:04:01.438Z,5
2017-04-17T05:05:01.161Z,5
2017-04-17T05:06:01.476Z,5
2017-04-17T05:07:01.519Z,5
2017-04-17T05:08:01.862Z,10
2017-04-17T05:09:01.581Z,10
2017-04-17T05:10:01.635Z,10
2017-04-17T05:11:01.669Z,10
2017-04-17T05:12:01.398Z,10
2017-04-17T05:13:01.835Z,10
2017-04-17T05:14:02.078Z,10
2017-04-17T05:15:02.087Z,10
2017-04-17T05:16:01.885Z,10
2017-04-17T05:17:01.576Z,15
2017-04-17T05:18:02.220Z,15
2017-04-17T05:19:01.627Z,15
2017-04-17T05:20:02.276Z,15
2017-04-17T05:21:01.683Z,15
2017-04-17T05:22:01.768Z,15
2017-04-17T05:23:02.371Z,15
2017-04-17T05:24:01.800Z,15
2017-04-17T05:25:02.418Z,15
2017-04-17T05:26:01.859Z,15
2017-04-17T05:27:02.125Z,20
2017-04-17T05:28:01.933Z,20
2017-04-17T05:29:01.966Z,20
2017-04-17T05:30:02.172Z,25
2017-04-17T05:31:02.615Z,25
2017-04-17T05:32:02.361Z,25
2017-04-17T05:33:02.697Z,25
2017-04-17T05:34:02.420Z,25
2017-04-17T05:35:02.168Z,25
2017-04-17T05:36:02.178Z,25
2017-04-17T05:37:02.530Z,30
2017-04-17T05:38:02.579Z,30
2017-04-17T05:39:02.913Z,30
2017-04-17T05:40:02.313Z,30
2017-04-17T05:41:02.665Z,25
2017-04-17T05:42:02.680Z,25
2017-04-17T05:43:02.727Z,25
2017-04-17T05:44:02.461Z,25
2017-04-17T05:45:02.810Z,25
2017-04-17T05:46:02.831Z,30
2017-04-17T05:47:02.857Z,30
2017-04-17T05:48:02.904Z,30
2017-04-17T05:49:02.640Z,25
2017-04-17T05:50:02.981Z,25
2017-04-17T05:51:02.713Z,25
2017-04-17T05:52:03.019Z,20
2017-04-17T05:53:02.782Z,20
2017-04-17T05:54:02.779Z,20
2017-04-17T05:55:02.813Z,15
2017-04-17T05:56:02.874Z,10
2017-04-17T05:57:02.884Z,10
2017-04-17T05:58:03.553Z,10
2017-04-17T05:59:03.252Z,15
2017-04-17T06:00:03.302Z,15
2017-04-17T06:01:03.046Z,15
2017-04-17T06:02:03.361Z,15
2017-04-17T06:03:03.090Z,20
2017-04-17T06:04:03.716Z,20
2017-04-17T06:05:03.678Z,25
2017-04-17T06:06:03.495Z,30
2017-04-17T06:07:03.228Z,35
2017-04-17T06:08:03.910Z,45
2017-04-17T06:09:03.321Z,50
2017-04-17T06:10:03.924Z,50
2017-04-17T06:11:03.480Z,45
2017-04-17T06:12:03.385Z,45
2017-04-17T06:13:03.429Z,45
2017-04-17T06:14:03.450Z,45
2017-04-17T06:15:03.801Z,40
2017-04-17T06:16:04.141Z,40
2017-04-17T06:17:03.859Z,35
2017-04-17T06:18:03.906Z,40
2017-04-17T06:19:03.950Z,45
2017-04-17T06:20:03.983Z,45
2017-04-17T06:21:03.987Z,50
2017-04-17T06:22:04.317Z,50
2017-04-17T06:23:04.083Z,40
2017-04-17T06:24:04.418Z,30
2017-04-17T06:25:04.138Z,30
2017-04-17T06:26:04.468Z,25
2017-04-17T06:27:04.509Z,25
2017-04-17T06:28:04.830Z,30
2017-04-17T06:29:04.557Z,35
2017-04-17T06:30:04.323Z,25
2017-04-17T06:31:04.215Z,25
2017-04-17T06:32:04.064Z,35
2017-04-17T06:33:04.408Z,40
2017-04-17T06:34:04.740Z,35
2017-04-17T06:35:04.476Z,40
2017-04-17T06:36:04.501Z,55
2017-04-17T06:37:04.224Z,55
2017-04-17T06:38:04.662Z,55
2017-04-17T06:39:04.413Z,65
2017-04-17T06:40:04.998Z,65
2017-04-17T06:41:04.661Z,65
2017-04-17T06:42:04.404Z,75
2017-04-17T06:43:05.034Z,90
2017-04-17T06:44:04.774Z,105
2017-04-17T06:45:05.126Z,110
2017-04-17T06:46:05.139Z,115
2017-04-17T06:47:04.571Z,110
2017-04-17T06:48:04.900Z,110
2017-04-17T06:49:05.261Z,115
2017-04-17T06:50:04.963Z,125
2017-04-17T06:51:04.707Z,130
2017-04-17T06:52:05.031Z,125
2017-04-17T06:53:05.072Z,125
2017-04-17T06:54:04.821Z,135
2017-04-17T06:55:04.839Z,150
2017-04-17T06:56:05.164Z,155
2017-04-17T06:57:05.166Z,155
2017-04-17T06:58:04.932Z,155
2017-04-17T06:59:04.975Z,155
2017-04-17T07:00:05.304Z,155
2017-04-17T07:01:05.333Z,150
2017-04-17T07:02:05.387Z,140
2017-04-17T07:03:06.045Z,140
2017-04-17T07:04:05.167Z,135
2017-04-17T07:05:05.470Z,140
2017-04-17T07:06:05.274Z,140
2017-04-17T07:07:05.545Z,150
2017-04-17T07:08:05.592Z,155
2017-04-17T07:09:05.610Z,155
2017-04-17T07:10:05.656Z,155
2017-04-17T07:11:05.675Z,150
2017-04-17T07:12:05.733Z,150
2017-04-17T07:13:05.749Z,150
2017-04-17T07:14:05.801Z,155
2017-04-17T07:15:06.421Z,160
2017-04-17T07:16:06.167Z,165
2017-04-17T07:17:05.592Z,170
2017-04-17T07:18:05.937Z,175
2017-04-17T07:19:05.671Z,175
2017-04-17T07:20:06.291Z,175
2017-04-17T07:21:06.347Z,180
2017-04-17T07:22:06.075Z,190
2017-04-17T07:23:05.789Z,195
2017-04-17T07:24:06.426Z,200
2017-04-17T07:25:06.167Z,210
2017-04-17T07:26:06.211Z,220
2017-04-17T07:27:05.930Z,230
2017-04-17T07:28:05.977Z,235
2017-04-17T07:29:06.309Z,240
2017-04-17T07:30:06.042Z,240
2017-04-17T07:31:06.164Z,240
2017-04-17T07:32:06.423Z,240
2017-04-17T07:33:06.749Z,245
2017-04-17T07:34:06.799Z,245
2017-04-17T07:35:06.511Z,250
2017-04-17T07:36:06.559Z,250
2017-04-17T07:37:06.582Z,245
2017-04-17T07:38:06.634Z,235
2017-04-17T07:39:06.653Z,230
2017-04-17T07:40:06.781Z,220
2017-04-17T07:41:07.053Z,220
2017-04-17T07:42:06.764Z,215
2017-04-17T07:43:06.822Z,205
2017-04-17T07:44:06.836Z,195
2017-04-17T07:45:06.873Z,190
2017-04-17T07:46:07.216Z,185
2017-04-17T07:47:07.237Z,185
2017-04-17T07:48:07.608Z,180
2017-04-17T07:49:06.724Z,170
2017-04-17T07:50:07.059Z,165
2017-04-17T07:51:06.779Z,165
2017-04-17T07:52:07.128Z,165
2017-04-17T07:53:07.169Z,160
2017-04-17T07:54:07.512Z,160
2017-04-17T07:55:07.241Z,160
2017-04-17T07:56:07.859Z,160
2017-04-17T07:57:07.026Z,170
2017-04-17T07:58:07.327Z,175
2017-04-17T07:59:07.370Z,175
2017-04-17T08:00:07.125Z,180
2017-04-17T08:01:07.446Z,190
2017-04-17T08:02:07.201Z,195
2017-04-17T08:03:07.810Z,205
2017-04-17T08:04:07.253Z,210
2017-04-17T08:05:07.277Z,210
2017-04-17T08:06:07.321Z,210
2017-04-17T08:07:07.353Z,205
2017-04-17T08:08:07.700Z,205
2017-04-17T08:09:07.718Z,200
2017-04-17T08:10:07.465Z,200
2017-04-17T08:11:07.494Z,205
2017-04-17T08:12:07.537Z,215
2017-04-17T08:13:07.862Z,230
2017-04-17T08:14:07.902Z,260
2017-04-17T08:15:07.977Z,285
2017-04-17T08:16:07.665Z,295
2017-04-17T08:17:07.731Z,310
2017-04-17T08:18:08.662Z,330
2017-04-17T08:19:08.093Z,345
2017-04-17T08:20:07.806Z,355
2017-04-17T08:21:07.857Z,375
2017-04-17T08:22:07.883Z,390
2017-04-17T08:23:08.231Z,420
2017-04-17T08:24:08.492Z,465
2017-04-17T08:25:08.011Z,545
2017-04-17T08:26:08.053Z,565
2017-04-17T08:27:08.669Z,655
2017-04-17T08:28:08.404Z,820
2017-04-17T08:29:08.443Z,815
2017-04-17T08:30:08.191Z,700
2017-04-17T08:31:08.222Z,680
2017-04-17T08:32:08.265Z,735
2017-04-17T08:33:08.601Z,1005
2017-04-17T08:34:09.230Z,1285
2017-04-17T08:35:08.680Z,980
2017-04-17T08:36:08.413Z,920
2017-04-17T08:37:08.762Z,760
2017-04-17T08:38:08.814Z,710
2017-04-17T08:39:09.132Z,635
2017-04-17T08:40:09.182Z,575
2017-04-17T08:41:09.213Z,580
2017-04-17T08:42:08.931Z,695
2017-04-17T08:43:09.203Z,760
2017-04-17T08:44:09.014Z,635
2017-04-17T08:45:09.073Z,630
2017-04-17T08:46:09.100Z,750
2017-04-17T08:47:08.834Z,925
2017-04-17T08:48:09.473Z,695
2017-04-17T08:49:09.215Z,650
2017-04-17T08:50:09.434Z,660
2017-04-17T08:51:08.994Z,755
2017-04-17T08:52:09.038Z,705
2017-04-17T08:53:09.379Z,745
2017-04-17T08:54:09.719Z,865
2017-04-17T08:55:09.442Z,1015
2017-04-17T08:56:09.491Z,860
2017-04-17T08:57:09.531Z,900
2017-04-17T08:58:09.269Z,770
2017-04-17T08:59:09.605Z,1010
2017-04-17T09:00:09.954Z,1020
2017-04-17T09:01:09.689Z,800
2017-04-17T09:02:10.024Z,980
2017-04-17T09:03:09.762Z,1205
2017-04-17T09:04:09.803Z,1325
2017-04-17T09:05:09.553Z,1225
2017-04-17T09:06:09.580Z,1045
2017-04-17T09:07:09.620Z,1110
2017-04-17T09:08:09.664Z,990
2017-04-17T09:09:09.723Z,1010
2017-04-17T09:10:10.386Z,825
2017-04-17T09:11:10.095Z,860
2017-04-17T09:12:09.839Z,1020
2017-04-17T09:13:10.194Z,900
2017-04-17T09:14:10.211Z,940
2017-04-17T09:15:10.261Z,800
2017-04-17T09:16:10.115Z,1140
2017-04-17T09:17:10.340Z,840
2017-04-17T09:18:10.071Z,695
2017-04-17T09:19:10.428Z,665
2017-04-17T09:20:10.774Z,595
2017-04-17T09:21:10.508Z,580
2017-04-17T09:22:10.860Z,540
2017-04-17T09:23:10.588Z,530
2017-04-17T09:24:10.922Z,480
2017-04-17T09:25:10.369Z,460
2017-04-17T09:26:10.708Z,455
2017-04-17T09:27:10.754Z,445
2017-04-17T09:28:11.090Z,435
2017-04-17T09:29:11.131Z,395
2017-04-17T09:30:10.566Z,370
2017-04-17T09:31:11.230Z,350
2017-04-17T09:32:11.257Z,335
2017-04-17T09:33:11.611Z,325
2017-04-17T09:34:11.034Z,310
2017-04-17T09:35:11.086Z,325
2017-04-17T09:36:11.105Z,345
2017-04-17T09:37:11.151Z,355
2017-04-17T09:38:11.237Z,345
2017-04-17T09:39:11.539Z,335
2017-04-17T09:40:10.962Z,320
2017-04-17T09:41:11.306Z,295
2017-04-17T09:42:11.040Z,255
2017-04-17T09:43:11.396Z,210
2017-04-17T09:44:11.416Z,180
2017-04-17T09:45:11.159Z,160
2017-04-17T09:46:11.225Z,150
2017-04-17T09:47:11.841Z,145
2017-04-17T09:48:11.576Z,135
2017-04-17T09:49:11.374Z,120
2017-04-17T09:50:11.684Z,110
2017-04-17T09:51:11.695Z,115
2017-04-17T09:52:11.739Z,105
2017-04-17T09:53:11.775Z,110
2017-04-17T09:54:12.426Z,115
2017-04-17T09:55:11.864Z,125
2017-04-17T09:56:11.587Z,135
2017-04-17T09:57:12.526Z,135
2017-04-17T09:58:11.972Z,140
2017-04-17T09:59:12.001Z,150
2017-04-17T10:00:12.036Z,155
2017-04-17T10:01:11.776Z,155
2017-04-17T10:02:12.110Z,155
2017-04-17T10:03:12.147Z,155
2017-04-17T10:04:12.484Z,155
2017-04-17T10:05:12.236Z,155
2017-04-17T10:06:12.466Z,155
2017-04-17T10:07:11.990Z,145
2017-04-17T10:08:12.041Z,145
2017-04-17T10:09:12.365Z,145
2017-04-17T10:10:12.421Z,145
2017-04-17T10:11:12.746Z,145
2017-04-17T10:12:12.476Z,150
2017-04-17T10:13:12.518Z,150
2017-04-17T10:14:12.854Z,155
2017-04-17T10:15:12.279Z,150
2017-04-17T10:16:12.309Z,150
2017-04-17T10:17:12.354Z,150
2017-04-17T10:18:12.702Z,145
2017-04-17T10:19:13.025Z,135
2017-04-17T10:20:12.464Z,130
2017-04-17T10:21:12.803Z,130
2017-04-17T10:22:12.834Z,130
2017-04-17T10:23:12.894Z,135
2017-04-17T10:24:12.800Z,145
2017-04-17T10:25:13.276Z,145
2017-04-17T10:26:12.996Z,150
2017-04-17T10:27:12.708Z,155
2017-04-17T10:28:12.752Z,165
2017-04-17T10:29:12.808Z,175
2017-04-17T10:30:12.809Z,175
2017-04-17T10:31:13.148Z,175
2017-04-17T10:32:12.889Z,170
2017-04-17T10:33:13.534Z,165
2017-04-17T10:34:13.273Z,160
2017-04-17T10:35:13.296Z,160
2017-04-17T10:36:13.039Z,160
2017-04-17T10:37:13.376Z,160
2017-04-17T10:38:13.110Z,160
2017-04-17T10:39:13.141Z,165
2017-04-17T10:40:13.521Z,170
2017-04-17T10:41:13.513Z,180
2017-04-17T10:42:13.552Z,195
2017-04-17T10:43:13.591Z,205
2017-04-17T10:44:13.618Z,215
2017-04-17T10:45:13.655Z,225
2017-04-17T10:46:13.391Z,240
2017-04-17T10:47:13.731Z,255
2017-04-17T10:48:13.761Z,270
2017-04-17T10:49:14.666Z,290
2017-04-17T10:50:14.163Z,300
2017-04-17T10:51:14.181Z,310
2017-04-17T10:52:13.913Z,315
2017-04-17T10:53:13.958Z,320
2017-04-17T10:54:13.983Z,320
2017-04-17T10:55:14.027Z,320
2017-04-17T10:56:14.049Z,310
2017-04-17T10:57:13.779Z,300
2017-04-17T10:58:13.820Z,295
2017-04-17T10:59:14.790Z,295
2017-04-17T11:00:14.191Z,295
2017-04-17T11:01:13.927Z,295
2017-04-17T11:02:13.967Z,295
2017-04-17T11:03:14.329Z,295
2017-04-17T11:04:14.065Z,290
2017-04-17T11:05:14.450Z,285
2017-04-17T11:06:14.219Z,275
2017-04-17T11:07:14.145Z,270
2017-04-17T11:08:14.791Z,265
2017-04-17T11:09:14.232Z,265
2017-04-17T11:10:14.559Z,265
2017-04-17T11:11:14.300Z,265
2017-04-17T11:12:14.641Z,265
2017-04-17T11:13:14.679Z,270
2017-04-17T11:14:14.717Z,280
2017-04-17T11:15:14.752Z,285
2017-04-17T11:16:14.827Z,290
2017-04-17T11:17:15.126Z,295
2017-04-17T11:18:14.552Z,300
2017-04-17T11:19:14.900Z,310
2017-04-17T11:20:14.623Z,325
2017-04-17T11:21:14.966Z,350
2017-04-17T11:22:15.400Z,370
2017-04-17T11:23:15.645Z,385
2017-04-17T11:24:14.778Z,405
2017-04-17T11:25:14.805Z,425
2017-04-17T11:26:15.156Z,435
2017-04-17T11:27:14.899Z,440
2017-04-17T11:28:15.537Z,460
2017-04-17T11:29:15.568Z,465
2017-04-17T11:30:14.993Z,465
2017-04-17T11:31:15.823Z,450
2017-04-17T11:32:15.667Z,430
2017-04-17T11:33:15.406Z,420
2017-04-17T11:34:15.138Z,405
2017-04-17T11:35:15.550Z,390
2017-04-17T11:36:15.522Z,375
2017-04-17T11:37:15.258Z,365
2017-04-17T11:38:15.595Z,355
2017-04-17T11:39:15.727Z,350
2017-04-17T11:40:15.757Z,355
2017-04-17T11:41:15.704Z,375
2017-04-17T11:42:15.745Z,405
2017-04-17T11:43:15.812Z,435
2017-04-17T11:44:15.823Z,455
2017-04-17T11:45:15.874Z,465
2017-04-17T11:46:15.628Z,480
2017-04-17T11:47:15.622Z,485
2017-04-17T11:48:16.526Z,485
2017-04-17T11:49:15.699Z,470
2017-04-17T11:50:15.741Z,455
2017-04-17T11:51:15.783Z,445
2017-04-17T11:52:16.121Z,430
2017-04-17T11:53:16.468Z,415
2017-04-17T11:54:16.186Z,410
2017-04-17T11:55:16.545Z,400
2017-04-17T11:56:16.290Z,395
2017-04-17T11:57:16.418Z,390
2017-04-17T11:58:16.673Z,390
2017-04-17T11:59:16.700Z,385
2017-04-17T12:00:16.119Z,380
2017-04-17T12:01:17.067Z,370
2017-04-17T12:02:16.813Z,370
2017-04-17T12:03:16.248Z,365
2017-04-17T12:04:16.605Z,360
2017-04-17T12:05:16.896Z,355
2017-04-17T12:06:16.959Z,350
2017-04-17T12:07:16.407Z,345
2017-04-17T12:08:17.030Z,345
2017-04-17T12:09:17.386Z,340
2017-04-17T12:10:16.806Z,340
2017-04-17T12:11:17.369Z,335
2017-04-17T12:12:16.587Z,330
2017-04-17T12:13:16.952Z,330
2017-04-17T12:14:17.264Z,325
2017-04-17T12:15:17.029Z,325
2017-04-17T12:16:17.635Z,325
2017-04-17T12:17:17.384Z,325
2017-04-17T12:18:17.950Z,325
2017-04-17T12:19:17.161Z,330
2017-04-17T12:20:17.495Z,330
2017-04-17T12:21:17.549Z,335
2017-04-17T12:22:16.958Z,340
2017-04-17T12:23:17.311Z,350
2017-04-17T12:24:17.047Z,350
2017-04-17T12:25:17.073Z,350
2017-04-17T12:26:17.420Z,345
2017-04-17T12:27:17.463Z,345
2017-04-17T12:28:18.407Z,350
2017-04-17T12:29:17.668Z,345
2017-04-17T12:30:17.569Z,345
2017-04-17T12:31:17.924Z,345
2017-04-17T12:32:17.946Z,340
2017-04-17T12:33:17.696Z,340
2017-04-17T12:34:17.764Z,340
2017-04-17T12:35:17.464Z,335
2017-04-17T12:36:17.499Z,335
2017-04-17T12:37:17.838Z,330
2017-04-17T12:38:18.671Z,330
2017-04-17T12:39:17.938Z,330
2017-04-17T12:40:17.960Z,320
2017-04-17T12:41:18.004Z,320
2017-04-17T12:42:18.335Z,320
2017-04-17T12:43:17.772Z,315
2017-04-17T12:44:17.800Z,315
2017-04-17T12:45:18.163Z,315
2017-04-17T12:46:18.291Z,305
2017-04-17T12:47:17.919Z,305
2017-04-17T12:48:18.582Z,300
2017-04-17T12:49:18.299Z,300
2017-04-17T12:50:18.343Z,295
2017-04-17T12:51:18.376Z,295
2017-04-17T12:52:18.721Z,290
2017-04-17T12:53:18.759Z,290
2017-04-17T12:54:19.503Z,275
2017-04-17T12:55:18.532Z,265
2017-04-17T12:56:19.165Z,275
2017-04-17T12:57:18.612Z,275
2017-04-17T12:58:18.949Z,285
2017-04-17T12:59:19.008Z,290
2017-04-17T13:00:19.043Z,290
2017-04-17T13:01:18.456Z,300
2017-04-17T13:02:18.825Z,315
2017-04-17T13:03:18.551Z,320
2017-04-17T13:04:19.500Z,300
2017-04-17T13:05:19.210Z,280
2017-04-17T13:06:19.246Z,245
2017-04-17T13:07:18.681Z,210
2017-04-17T13:08:19.329Z,185
2017-04-17T13:09:19.364Z,155
2017-04-17T13:10:19.412Z,130
2017-04-17T13:11:19.139Z,105
2017-04-17T13:12:18.931Z,85
2017-04-17T13:13:18.913Z,75
2017-04-17T13:14:19.562Z,65
2017-04-17T13:15:19.284Z,60
2017-04-17T13:16:19.029Z,60
2017-04-17T13:17:19.359Z,60
2017-04-17T13:18:19.407Z,60
2017-04-17T13:19:19.443Z,60
2017-04-17T13:20:19.731Z,55
2017-04-17T13:21:19.216Z,55
2017-04-17T13:22:19.266Z,55
2017-04-17T13:23:19.913Z,55
2017-04-17T13:24:19.639Z,55
2017-04-17T13:25:19.971Z,55
2017-04-17T13:26:19.701Z,55
2017-04-17T13:27:20.035Z,55
2017-04-17T13:28:19.786Z,60
2017-04-17T13:29:19.511Z,60
2017-04-17T13:30:19.544Z,65
2017-04-17T13:31:19.580Z,70
2017-04-17T13:32:19.925Z,70
2017-04-17T13:33:20.255Z,70
2017-04-17T13:34:19.992Z,65
2017-04-17T13:35:19.729Z,65
2017-04-17T13:36:19.781Z,60
2017-04-17T13:37:20.731Z,55
2017-04-17T13:38:20.452Z,45
2017-04-17T13:39:20.492Z,40
2017-04-17T13:40:20.226Z,35
2017-04-17T13:41:19.938Z,40
2017-04-17T13:42:20.594Z,45
2017-04-17T13:43:20.016Z,50
2017-04-17T13:44:20.346Z,65
2017-04-17T13:45:20.393Z,80
2017-04-17T13:46:20.142Z,95
2017-04-17T13:47:20.775Z,110
2017-04-17T13:48:20.807Z,120
2017-04-17T13:49:20.530Z,125
2017-04-17T13:50:20.264Z,130
2017-04-17T13:51:21.052Z,130
2017-04-17T13:52:20.625Z,135
2017-04-17T13:53:20.679Z,135
2017-04-17T13:54:20.633Z,140
2017-04-17T13:55:20.749Z,145
2017-04-17T13:56:21.092Z,155
2017-04-17T13:57:20.817Z,160
2017-04-17T13:58:21.192Z,170
2017-04-17T13:59:21.198Z,180
2017-04-17T14:00:20.624Z,190
2017-04-17T14:01:21.267Z,205
2017-04-17T14:02:20.692Z,205
2017-04-17T14:03:21.328Z,210
2017-04-17T14:04:21.369Z,220
2017-04-17T14:05:20.796Z,220
2017-04-17T14:06:21.136Z,225
2017-04-17T14:07:20.867Z,230
2017-04-17T14:08:20.919Z,235
2017-04-17T14:09:21.548Z,240
2017-04-17T14:10:20.999Z,250
2017-04-17T14:11:21.019Z,250